Time;durP1;ratioP1;P1;durP2;ratioP2;P2;SDS_P1;SDS_P2;PMS_P1;PMS_P2;Temp;Humidity;BMP_temperature;BMP_pressure;BME280_temperature;BME280_humidity;BME280_pressure;Samples;Min_cycle;Max_cycle;Signal;HPM_P1;HPM_P2
2022/02/07 00:01:33;;;;;;;45.47;26.75;;;4.50;99.90;;;;;;5031493;28;20073;-79
2022/02/07 00:03:59;;;;;;;44.05;25.40;;;4.30;99.90;;;;;;5032279;28;20037;-80
2022/02/07 00:06:27;;;;;;;61.97;34.38;;;4.30;99.90;;;;;;5032117;28;20041;-79
2022/02/07 00:08:54;;;;;;;36.92;24.67;;;4.00;99.90;;;;;;5031495;28;20043;-78
2022/02/07 00:11:21;;;;;;;111.13;53.78;;;3.80;99.90;;;;;;5030889;28;20049;-82
2022/02/07 00:13:48;;;;;;;47.42;29.42;;;4.50;99.90;;;;;;5030978;28;20034;-79
2022/02/07 00:16:15;;;;;;;56.03;32.15;;;4.30;99.90;;;;;;5014027;28;20379;-81
2022/02/07 00:18:44;;;;;;;61.63;32.97;;;4.70;99.90;;;;;;5030620;28;20037;-82
2022/02/07 00:21:11;;;;;;;34.65;23.20;;;5.10;99.90;;;;;;5031677;28;20112;-79
2022/02/07 00:23:38;;;;;;;37.90;24.30;;;4.90;99.90;;;;;;5031588;28;20037;-86
2022/02/07 00:26:06;;;;;;;32.88;22.08;;;4.70;99.90;;;;;;5031429;28;20044;-86
2022/02/07 00:28:33;;;;;;;37.80;24.40;;;4.10;99.90;;;;;;5031758;28;20029;-84
2022/02/07 00:31:01;;;;;;;39.03;23.05;;;4.00;99.90;;;;;;5031276;28;20112;-79
2022/02/07 00:33:28;;;;;;;41.63;21.80;;;4.30;99.90;;;;;;5031517;28;20558;-81
2022/02/07 00:35:56;;;;;;;40.90;24.45;;;4.00;99.90;;;;;;5031791;28;20045;-83
2022/02/07 00:38:25;;;;;;;42.40;23.95;;;3.70;99.90;;;;;;5030413;28;20041;-80
2022/02/07 00:43:27;;;;;;;38.67;23.10;;;4.20;99.90;;;;;;5030011;28;20467;-78
2022/02/07 00:46:06;;;;;;;30.77;20.17;;;4.00;99.90;;;;;;5029918;28;20045;-79
2022/02/07 00:48:34;;;;;;;36.95;22.30;;;3.50;99.90;;;;;;5031122;28;20041;-82
2022/02/07 00:51:02;;;;;;;34.83;22.58;;;3.30;99.90;;;;;;5030984;28;20395;-79
2022/02/07 00:53:33;;;;;;;34.05;21.45;;;3.70;99.90;;;;;;5031137;28;20038;-80
2022/02/07 00:56:02;;;;;;;32.95;20.15;;;3.90;99.90;;;;;;5031154;28;20042;-77
2022/02/07 00:58:29;;;;;;;34.20;21.33;;;3.60;99.90;;;;;;5030099;28;20414;-79
2022/02/07 01:00:56;;;;;;;31.55;21.75;;;3.20;99.90;;;;;;5030641;28;20040;-80
2022/02/07 01:03:24;;;;;;;39.70;22.17;;;2.90;99.90;;;;;;5031126;28;20052;-81
2022/02/07 01:05:52;;;;;;;34.70;22.20;;;3.10;99.90;;;;;;5030087;28;20428;-78
2022/02/07 01:08:32;;;;;;;34.63;21.42;;;3.20;99.90;;;;;;5030917;28;20046;-80
2022/02/07 01:11:21;;;;;;;34.13;21.27;;;3.20;99.90;;;;;;5034132;28;20040;-79
2022/02/07 01:14:12;;;;;;;37.05;21.80;;;3.20;99.90;;;;;;5034987;28;20048;-79
2022/02/07 01:22:17;;;;;;;36.00;20.65;;;3.60;99.90;;;;;;5034737;28;20486;-79
2022/02/07 01:54:44;;;;;;;42.58;23.95;;;3.30;99.90;;;;;;5034021;28;20041;-81
2022/02/07 01:57:13;;;;;;;44.08;24.55;;;3.60;99.90;;;;;;5033544;28;20033;-78
2022/02/07 01:59:41;;;;;;;47.35;28.38;;;3.80;99.90;;;;;;5033505;28;20049;-81
2022/02/07 02:02:08;;;;;;;59.92;33.47;;;3.90;99.90;;;;;;5033795;28;20363;-79
2022/02/07 02:04:36;;;;;;;70.30;40.75;;;3.90;99.90;;;;;;5032541;28;20041;-80
2022/02/07 02:07:04;;;;;;;71.70;42.20;;;3.60;99.90;;;;;;5034210;28;20504;-79
2022/02/07 02:09:32;;;;;;;81.45;46.92;;;3.50;99.90;;;;;;5006551;28;20386;-79
2022/02/07 02:12:00;;;;;;;80.07;45.75;;;3.40;99.90;;;;;;5013973;28;20625;-82
2022/02/07 02:32:31;;;;;;;72.93;44.42;;;3.40;99.90;;;;;;5013213;28;20210;-79
2022/02/07 02:46:45;;;;;;;82.05;47.75;;;3.20;99.90;;;;;;5013582;28;20440;-81
2022/02/07 02:49:12;;;;;;;78.30;46.25;;;3.00;99.90;;;;;;5013043;28;20049;-82
2022/02/07 02:51:40;;;;;;;87.18;48.47;;;3.10;99.90;;;;;;5013351;28;20491;-78
2022/02/07 02:54:07;;;;;;;82.82;43.97;;;3.10;99.90;;;;;;5013194;28;20045;-82
2022/02/07 02:56:35;;;;;;;88.28;47.90;;;2.70;99.90;;;;;;5013184;28;20382;-78
2022/02/07 02:59:05;;;;;;;70.10;40.08;;;2.80;99.90;;;;;;5013401;28;20387;-75
2022/02/07 03:01:32;;;;;;;54.28;35.17;;;2.90;99.90;;;;;;5013402;28;20040;-79
2022/02/07 03:04:00;;;;;;;62.53;37.35;;;2.90;99.90;;;;;;5012906;28;20042;-77
2022/02/07 03:06:27;;;;;;;73.75;38.53;;;2.90;99.90;;;;;;5013338;28;20383;-82
2022/02/07 03:08:54;;;;;;;55.42;34.45;;;2.80;99.90;;;;;;5015879;28;20040;-79
2022/02/07 03:11:24;;;;;;;58.10;33.45;;;2.80;99.90;;;;;;5031440;28;20033;-78
2022/02/07 03:13:55;;;;;;;52.58;30.95;;;2.90;99.90;;;;;;5032690;28;20064;-80
2022/02/07 03:16:37;;;;;;;36.38;24.58;;;2.90;99.90;;;;;;5031471;28;20048;-76
2022/02/07 03:19:11;;;;;;;41.53;26.15;;;3.00;99.90;;;;;;5032117;28;20045;-80
2022/02/07 03:21:40;;;;;;;46.53;25.58;;;2.60;99.90;;;;;;5032321;28;20068;-79
2022/02/07 03:24:08;;;;;;;47.65;30.33;;;2.80;99.90;;;;;;5032090;28;20044;-79
2022/02/07 03:26:42;;;;;;;57.15;31.20;;;2.60;99.90;;;;;;5047752;28;20037;-81
2022/02/07 03:29:14;;;;;;;52.33;31.00;;;2.70;99.90;;;;;;5031641;28;20041;-81
2022/02/07 03:31:43;;;;;;;54.80;32.00;;;2.90;99.90;;;;;;5031855;28;20033;-81
2022/02/07 03:34:11;;;;;;;54.08;30.50;;;3.00;99.90;;;;;;5031813;28;20056;-84
2022/02/07 03:36:39;;;;;;;55.50;31.75;;;3.10;99.90;;;;;;5032246;28;20520;-80
2022/02/07 03:39:06;;;;;;;52.13;33.38;;;3.20;99.90;;;;;;5031816;28;20038;-82
2022/02/07 03:41:36;;;;;;;54.72;31.13;;;3.10;99.90;;;;;;5031896;28;20073;-82
2022/02/07 03:44:04;;;;;;;51.60;30.45;;;3.00;99.90;;;;;;5031590;28;20037;-81
2022/02/07 03:46:32;;;;;;;51.97;30.67;;;3.20;99.90;;;;;;5032468;28;20037;-83
2022/02/07 03:48:59;;;;;;;40.17;24.13;;;3.30;99.90;;;;;;5031856;28;20374;-82
2022/02/07 03:51:26;;;;;;;87.10;58.97;;;3.20;99.90;;;;;;5031513;28;20033;-82
2022/02/07 03:53:53;;;;;;;181.13;65.15;;;3.30;99.90;;;;;;5031927;28;20044;-81
2022/02/07 03:56:21;;;;;;;48.97;26.70;;;3.20;99.90;;;;;;5030284;28;20522;-81
2022/02/07 03:58:48;;;;;;;38.25;24.33;;;3.20;99.90;;;;;;5031750;28;20371;-81
2022/02/07 04:01:17;;;;;;;40.90;25.17;;;3.20;99.90;;;;;;5030108;28;20039;-79
2022/02/07 04:03:46;;;;;;;38.55;23.90;;;3.00;99.90;;;;;;5031674;28;20409;-79
2022/02/07 04:06:17;;;;;;;42.25;24.75;;;2.70;99.90;;;;;;5031479;28;20133;-79
2022/02/07 04:08:48;;;;;;;44.67;26.73;;;2.90;99.90;;;;;;5031844;28;20029;-84
2022/02/07 04:11:24;;;;;;;48.35;28.60;;;3.20;99.90;;;;;;5010449;28;20117;-80
2022/02/07 04:13:54;;;;;;;235.50;89.30;;;3.10;99.90;;;;;;5011689;28;20096;-82
2022/02/07 04:16:21;;;;;;;;;;;3.20;99.90;;;;;;5011207;28;20065;-79
2022/02/07 04:21:16;;;;;;;242.77;91.88;;;3.10;99.90;;;;;;5011479;28;20053;-81
2022/02/07 04:23:44;;;;;;;214.63;88.20;;;3.10;99.90;;;;;;5012206;28;20037;-80
2022/02/07 04:26:12;;;;;;;76.80;56.15;;;3.20;99.90;;;;;;5044138;28;20046;-80
2022/02/07 04:28:39;;;;;;;269.05;85.68;;;3.30;99.90;;;;;;5011968;28;20033;-81
2022/02/07 04:31:06;;;;;;;281.73;90.88;;;3.30;99.90;;;;;;5011519;28;20448;-79
2022/02/07 04:33:33;;;;;;;286.08;86.82;;;3.30;99.90;;;;;;5011642;28;20501;-81
2022/02/07 04:36:00;;;;;;;283.25;87.28;;;3.30;99.90;;;;;;5012015;28;20050;-80
2022/02/07 04:38:28;;;;;;;29.77;19.88;;;3.10;99.90;;;;;;5011601;28;20037;-80
2022/02/07 04:40:55;;;;;;;48.10;23.75;;;3.00;99.90;;;;;;5011461;28;20053;-80
2022/02/07 04:43:22;;;;;;;154.93;78.00;;;3.10;99.90;;;;;;5012162;28;20471;-80
2022/02/07 05:01:32;;;;;;;41.03;26.85;;;3.00;99.90;;;;;;5015324;28;20044;-80
2022/02/07 05:04:07;;;;;;;45.00;27.87;;;2.90;99.90;;;;;;5014610;28;20049;-79
2022/02/07 05:14:52;;;;;;;42.67;26.40;;;2.50;99.90;;;;;;5035014;28;20045;-81
2022/02/07 05:17:20;;;;;;;40.53;26.10;;;2.60;99.90;;;;;;5035194;28;20394;-80
2022/02/07 05:19:49;;;;;;;45.10;27.83;;;2.70;99.90;;;;;;5034524;28;20099;-80
2022/02/07 05:22:16;;;;;;;44.92;26.98;;;2.90;99.90;;;;;;5034479;28;20441;-80
2022/02/07 05:24:43;;;;;;;42.10;25.63;;;2.90;99.90;;;;;;5034872;28;20045;-81
2022/02/07 05:27:10;;;;;;;42.67;27.20;;;2.10;99.90;;;;;;5034400;28;20033;-79
2022/02/07 05:29:37;;;;;;;38.80;24.08;;;2.10;99.90;;;;;;5034257;28;20112;-83
2022/02/07 05:32:05;;;;;;;34.80;22.05;;;2.40;99.90;;;;;;5034515;28;20092;-84
2022/02/07 05:34:35;;;;;;;;;;;2.70;99.90;;;;;;5034887;28;20609;-86
2022/02/07 05:37:03;;;;;;;34.83;23.52;;;2.80;99.90;;;;;;5034593;28;19921;-82
2022/02/07 05:39:34;;;;;;;37.63;24.75;;;2.90;99.90;;;;;;5034040;28;20049;-81
2022/02/07 05:42:06;;;;;;;40.28;25.08;;;2.90;99.90;;;;;;5034129;28;20041;-77
2022/02/07 05:44:36;;;;;;;41.65;26.25;;;3.00;99.90;;;;;;5034135;28;20061;-78
2022/02/07 05:47:04;;;;;;;41.22;27.50;;;3.30;99.90;;;;;;5049477;28;20387;-79
2022/02/07 05:49:33;;;;;;;42.88;26.88;;;3.40;99.90;;;;;;5033934;28;20033;-81
2022/02/07 05:52:00;;;;;;;43.25;28.77;;;3.10;99.90;;;;;;5033507;28;20459;-81
2022/02/07 05:54:27;;;;;;;47.15;28.75;;;3.10;99.90;;;;;;5034109;28;20037;-87
2022/02/07 05:56:54;;;;;;;47.88;27.77;;;3.20;99.90;;;;;;5033935;28;20038;-83
2022/02/07 05:59:22;;;;;;;50.72;28.73;;;3.10;99.90;;;;;;5033764;28;20045;-82
2022/02/07 06:01:49;;;;;;;40.65;26.90;;;3.20;99.90;;;;;;5033921;28;20078;-85
2022/02/07 06:04:16;;;;;;;43.28;27.90;;;3.20;99.90;;;;;;5049005;28;20053;-82
2022/02/07 06:06:43;;;;;;;42.20;26.85;;;3.20;99.90;;;;;;5033847;28;20041;-84
2022/02/07 06:09:13;;;;;;;44.05;29.23;;;3.20;99.90;;;;;;5047873;28;20065;-81
2022/02/07 06:11:41;;;;;;;48.92;30.40;;;3.10;99.90;;;;;;5014426;28;20406;-89
2022/02/07 06:14:08;;;;;;;49.20;29.65;;;2.80;99.90;;;;;;5014074;28;20042;-84
2022/02/07 06:16:35;;;;;;;47.15;30.98;;;2.90;99.90;;;;;;5013445;28;20071;-81
2022/02/07 06:19:02;;;;;;;48.13;29.45;;;2.80;99.90;;;;;;5012829;28;20044;-80
2022/02/07 06:21:32;;;;;;;45.33;28.30;;;2.70;99.90;;;;;;5013271;28;20479;-82
2022/02/07 06:24:02;;;;;;;45.88;28.95;;;2.70;99.90;;;;;;5013342;28;20049;-77
2022/02/07 06:26:30;;;;;;;45.83;30.10;;;3.00;99.90;;;;;;5014246;28;20044;-82
2022/02/07 06:28:58;;;;;;;51.17;30.85;;;3.20;99.90;;;;;;5014072;28;20132;-86
2022/02/07 06:31:27;;;;;;;47.05;30.23;;;3.10;99.90;;;;;;5013535;28;20798;-86
2022/02/07 06:33:54;;;;;;;48.20;29.35;;;3.00;99.90;;;;;;5011164;28;20434;-82
2022/02/07 06:36:21;;;;;;;49.33;30.17;;;2.80;99.90;;;;;;5011444;28;20168;-83
2022/02/07 06:38:49;;;;;;;45.60;30.00;;;2.80;99.90;;;;;;5012540;28;20064;-83
2022/02/07 06:41:16;;;;;;;53.05;30.48;;;3.00;99.90;;;;;;5012065;28;20052;-88
2022/02/07 06:43:44;;;;;;;49.58;31.27;;;3.10;99.90;;;;;;5012136;28;20041;-88
2022/02/07 06:46:11;;;;;;;48.35;31.10;;;3.20;99.90;;;;;;5012604;28;20065;-87
2022/02/07 06:48:40;;;;;;;52.67;33.50;;;3.10;99.90;;;;;;5013250;28;20038;-85
2022/02/07 06:51:07;;;;;;;58.17;35.17;;;3.10;99.90;;;;;;5013454;28;20038;-84
2022/02/07 06:53:35;;;;;;;53.92;35.67;;;3.20;99.90;;;;;;5012972;28;20352;-82
2022/02/07 06:56:03;;;;;;;53.75;33.85;;;3.20;99.90;;;;;;5012059;28;20034;-83
2022/02/07 06:58:31;;;;;;;55.80;34.20;;;3.00;99.90;;;;;;5012664;28;20393;-81
2022/02/07 07:01:01;;;;;;;59.45;35.60;;;3.00;99.90;;;;;;5012985;28;20042;-83
2022/02/07 07:03:32;;;;;;;57.42;36.55;;;3.30;99.90;;;;;;5012806;28;20033;-83
2022/02/07 07:06:00;;;;;;;50.40;32.72;;;3.20;99.90;;;;;;4995748;28;20068;-82
2022/02/07 07:08:35;;;;;;;56.38;34.17;;;2.70;99.90;;;;;;5018325;28;20107;-77
2022/02/07 07:11:35;;;;;;;52.05;30.52;;;2.90;99.90;;;;;;5024296;28;20037;-78
2022/02/07 07:14:16;;;;;;;51.10;30.77;;;2.70;99.90;;;;;;5010649;28;20056;-80
2022/02/07 07:16:50;;;;;;;52.53;32.08;;;2.80;99.90;;;;;;5012604;28;20391;-82
2022/02/07 07:19:19;;;;;;;60.92;36.80;;;3.00;99.90;;;;;;5011885;28;20052;-81
2022/02/07 07:21:48;;;;;;;112.47;60.67;;;3.30;99.90;;;;;;5027562;28;20081;-80
2022/02/07 07:24:17;;;;;;;115.43;62.83;;;3.90;99.90;;;;;;5027094;28;20126;-78
2022/02/07 07:26:44;;;;;;;52.20;32.75;;;4.10;99.90;;;;;;5012498;28;20038;-75
2022/02/07 07:29:20;;;;;;;48.33;31.20;;;4.10;99.90;;;;;;5010949;28;20053;-75
2022/02/07 07:31:52;;;;;;;43.85;29.27;;;4.10;99.90;;;;;;5011331;28;20519;-77
2022/02/07 07:34:19;;;;;;;44.38;28.27;;;4.00;99.90;;;;;;5010555;28;20465;-75
2022/02/07 07:36:50;;;;;;;47.60;30.20;;;3.60;99.90;;;;;;5012481;28;20042;-75
2022/02/07 07:39:18;;;;;;;48.08;29.60;;;3.50;99.90;;;;;;5024345;28;20041;-77
2022/02/07 07:41:48;;;;;;;47.40;29.98;;;3.70;99.90;;;;;;5014257;28;20041;-75
2022/02/07 07:44:18;;;;;;;44.38;29.67;;;3.90;99.90;;;;;;5030392;28;20038;-74
2022/02/07 07:46:47;;;;;;;55.88;30.00;;;4.20;99.90;;;;;;5014931;28;20554;-73
2022/02/07 07:49:28;;;;;;;48.38;29.27;;;4.10;99.90;;;;;;5030800;28;20041;-74
2022/02/07 07:52:02;;;;;;;50.15;30.83;;;4.20;99.90;;;;;;5031919;28;20037;-74
2022/02/07 08:02:51;;;;;;;52.08;30.65;;;4.30;99.90;;;;;;5031247;28;20045;-75
2022/02/07 08:08:29;;;;;;;52.58;31.02;;;3.90;99.90;;;;;;4988037;28;20049;-75
2022/02/07 08:11:09;;;;;;;47.80;31.77;;;4.20;99.90;;;;;;5031097;28;20083;-79
2022/02/07 08:13:40;;;;;;;50.97;31.05;;;4.20;99.90;;;;;;5029924;28;20049;-77
2022/02/07 08:16:07;;;;;;;;;;;4.50;99.90;;;;;;5031520;28;20483;-78
2022/02/07 08:18:34;;;;;;;59.63;34.17;;;4.70;99.90;;;;;;5030955;28;19924;-75
2022/02/07 08:21:02;;;;;;;56.47;34.00;;;4.80;99.90;;;;;;5031188;28;20049;-75
2022/02/07 08:23:30;;;;;;;56.42;35.13;;;5.00;99.90;;;;;;5031270;28;20055;-76
2022/02/07 08:26:01;;;;;;;53.33;35.28;;;4.90;99.90;;;;;;5031056;28;20042;-77
2022/02/07 08:28:44;;;;;;;60.05;35.45;;;5.00;99.90;;;;;;5031431;28;20387;-77
2022/02/07 08:31:12;;;;;;;59.65;34.97;;;4.80;99.90;;;;;;5030873;28;20132;-81
2022/02/07 08:33:39;;;;;;;55.50;36.22;;;4.60;99.90;;;;;;5031512;28;20140;-76
2022/02/07 08:36:06;;;;;;;62.05;36.60;;;4.80;99.90;;;;;;5046409;28;20045;-74
2022/02/07 08:38:37;;;;;;;61.63;36.53;;;5.00;99.90;;;;;;5030669;28;20091;-77
2022/02/07 08:41:04;;;;;;;54.17;37.47;;;5.10;99.90;;;;;;5031070;28;20037;-74
2022/02/07 08:43:32;;;;;;;66.00;37.05;;;5.10;99.90;;;;;;5031348;28;20047;-75
2022/02/07 08:45:59;;;;;;;61.55;38.47;;;5.30;99.90;;;;;;5013652;28;20037;-75
2022/02/07 08:48:27;;;;;;;67.20;39.33;;;5.40;99.90;;;;;;5013590;28;20096;-74
2022/02/07 08:50:57;;;;;;;60.70;37.53;;;5.40;99.90;;;;;;5013582;28;20447;-77
2022/02/07 08:53:30;;;;;;;63.10;37.20;;;5.10;99.90;;;;;;5013771;28;20049;-71
2022/02/07 08:55:59;;;;;;;66.45;36.13;;;5.00;99.90;;;;;;5030921;28;20458;-73
2022/02/07 08:58:31;;;;;;;60.63;39.27;;;4.60;99.90;;;;;;5045989;28;20087;-72
2022/02/07 09:08:52;;;;;;;256.60;131.57;;;5.70;99.90;;;;;;5028852;28;20059;-75
2022/02/07 09:11:20;;;;;;;70.90;45.42;;;5.90;99.90;;;;;;5013359;28;20060;-75
2022/02/07 09:13:48;;;;;;;66.45;41.83;;;6.10;99.90;;;;;;5029613;28;20124;-76
2022/02/07 09:16:29;;;;;;;68.85;45.28;;;6.10;99.90;;;;;;5029972;28;20540;-74
2022/02/07 09:19:01;;;;;;;71.60;44.00;;;5.60;99.90;;;;;;5010924;28;20042;-72
2022/02/07 09:21:29;;;;;;;81.20;46.08;;;6.00;99.90;;;;;;5010043;28;20046;-75
2022/02/07 09:23:58;;;;;;;75.03;46.13;;;6.10;99.90;;;;;;5020571;28;20501;-72
2022/02/07 09:26:26;;;;;;;72.30;44.55;;;6.10;99.90;;;;;;5030796;28;20041;-71
2022/02/07 09:28:53;;;;;;;65.80;39.80;;;6.10;99.90;;;;;;5013511;28;20056;-73
2022/02/07 09:31:21;;;;;;;67.90;40.50;;;6.00;99.90;;;;;;5032449;28;20124;-71
2022/02/07 09:33:51;;;;;;;63.97;39.85;;;6.80;99.90;;;;;;5034414;28;20351;-70
2022/02/07 09:36:20;;;;;;;56.67;35.35;;;7.10;99.90;;;;;;5033320;28;20045;-73
2022/02/07 09:38:48;;;;;;;56.60;34.78;;;6.80;99.90;;;;;;5034047;28;20044;-71
2022/02/07 09:41:17;;;;;;;57.47;35.20;;;7.40;99.90;;;;;;5033638;28;20048;-74
2022/02/07 09:43:52;;;;;;;56.15;33.72;;;7.90;99.90;;;;;;5034030;28;20367;-69
2022/02/07 09:46:35;;;;;;;49.20;31.77;;;8.30;99.90;;;;;;5033770;28;20044;-70
2022/02/07 09:49:04;;;;;;;43.40;30.30;;;8.50;99.90;;;;;;5033497;28;20033;-72
2022/02/07 09:51:31;;;;;;;51.50;30.90;;;9.10;99.90;;;;;;5030234;28;20068;-73
2022/02/07 09:53:59;;;;;;;45.20;30.05;;;9.00;99.90;;;;;;5031418;28;20037;-71
2022/02/07 09:56:29;;;;;;;49.42;30.67;;;8.90;99.90;;;;;;5014241;28;20045;-71
2022/02/07 09:58:57;;;;;;;47.47;30.10;;;8.60;99.90;;;;;;5033162;28;20037;-73
2022/02/07 10:01:29;;;;;;;48.92;31.88;;;8.40;99.90;;;;;;5015439;28;20051;-71
2022/02/07 10:04:05;;;;;;;60.13;34.97;;;8.40;99.90;;;;;;5032314;28;20084;-71
2022/02/07 10:12:10;;;;;;;55.90;37.00;;;8.70;99.90;;;;;;5032620;28;20049;-72
2022/02/07 10:17:31;;;;;;;70.40;45.45;;;9.30;99.90;;;;;;5012325;28;20135;-76
2022/02/07 10:40:08;;;;;;;54.75;37.92;;;10.40;99.90;;;;;;5031338;28;20040;-71
2022/02/07 10:43:06;;;;;;;60.65;39.05;;;10.50;99.90;;;;;;5030597;28;20038;-74
2022/02/07 10:45:49;;;;;;;46.55;32.90;;;10.20;99.90;;;;;;5047357;28;20045;-73
2022/02/07 10:48:41;;;;;;;45.45;31.63;;;10.00;99.90;;;;;;5031985;28;20033;-72
2022/02/07 10:51:18;;;;;;;44.65;30.38;;;9.90;99.90;;;;;;5031524;28;20375;-75
2022/02/07 10:53:49;;;;;;;46.58;30.77;;;9.80;99.90;;;;;;5028413;28;20044;-76
2022/02/07 10:56:22;;;;;;;45.13;29.70;;;9.80;99.90;;;;;;5030447;28;20049;-73
2022/02/07 10:58:54;;;;;;;39.65;28.88;;;9.70;99.90;;;;;;5029870;28;20037;-72
2022/02/07 11:03:54;;;;;;;46.30;30.85;;;9.30;99.90;;;;;;5031962;28;20040;-71
2022/02/07 11:06:35;;;;;;;43.38;29.35;;;9.30;99.90;;;;;;5030881;28;20080;-75
2022/02/07 11:17:24;;;;;;;44.50;29.48;;;9.30;99.90;;;;;;5029455;28;20139;-72
2022/02/07 11:20:12;;;;;;;39.42;27.80;;;9.30;99.90;;;;;;5014058;28;20041;-73
2022/02/07 11:28:22;;;;;;;49.70;33.80;;;9.60;99.90;;;;;;5028753;28;20390;-74
2022/02/07 11:31:05;;;;;;;34.10;23.38;;;9.60;99.90;;;;;;5030637;28;20029;-74
2022/02/07 11:33:51;;;;;;;34.55;22.95;;;8.80;99.90;;;;;;5031312;28;20041;-74
2022/02/07 11:36:34;;;;;;;40.20;24.25;;;8.80;99.90;;;;;;5031020;28;20390;-76
2022/02/07 11:39:12;;;;;;;37.53;25.10;;;8.80;99.90;;;;;;5030495;28;20037;-72
2022/02/07 11:41:57;;;;;;;36.13;25.17;;;8.90;99.90;;;;;;5031757;28;20495;-71
2022/02/07 11:44:33;;;;;;;30.15;20.25;;;9.00;99.90;;;;;;5031320;28;20049;-74
2022/02/07 11:47:24;;;;;;;31.67;21.60;;;8.90;99.90;;;;;;5031878;28;20429;-76
2022/02/07 11:49:56;;;;;;;28.00;17.73;;;8.80;99.90;;;;;;5030009;28;20045;-74
2022/02/07 11:52:42;;;;;;;29.30;17.65;;;8.50;99.90;;;;;;5031331;28;20033;-75
2022/02/07 11:55:15;;;;;;;28.67;18.33;;;8.50;99.90;;;;;;5014038;28;20087;-78
2022/02/07 11:57:57;;;;;;;25.70;16.45;;;8.60;99.90;;;;;;5013850;28;20049;-73
2022/02/07 12:00:34;;;;;;;25.85;16.45;;;8.50;99.90;;;;;;5031111;28;20060;-74
2022/02/07 12:03:06;;;;;;;27.20;15.90;;;8.40;99.90;;;;;;5014174;28;20041;-74
2022/02/07 12:05:46;;;;;;;26.63;16.90;;;8.40;99.90;;;;;;5031819;28;20438;-75
2022/02/07 12:08:25;;;;;;;25.42;16.73;;;8.30;99.90;;;;;;5030838;28;20045;-74
2022/02/07 12:11:33;;;;;;;27.77;18.77;;;8.40;99.90;;;;;;5014184;28;20136;-74
2022/02/07 12:14:31;;;;;;;30.35;20.30;;;8.50;99.90;;;;;;5014136;28;20383;-76
2022/02/07 12:16:59;;;;;;;34.50;19.88;;;8.50;99.90;;;;;;5031300;28;20400;-73
2022/02/07 12:19:40;;;;;;;34.38;22.92;;;8.50;99.90;;;;;;5012227;28;20438;-73
2022/02/07 12:22:19;;;;;;;34.15;21.42;;;8.50;99.90;;;;;;5011318;28;20045;-73
2022/02/07 12:24:58;;;;;;;34.75;21.60;;;8.40;99.90;;;;;;4994928;28;20049;-74
2022/02/07 12:27:28;;;;;;;31.73;21.23;;;8.60;99.90;;;;;;5010322;28;20483;-74
2022/02/07 12:30:16;;;;;;;36.45;22.58;;;8.50;99.90;;;;;;5010929;28;20038;-72
2022/02/07 12:32:44;;;;;;;29.77;22.55;;;8.70;99.90;;;;;;5010834;28;20374;-73
2022/02/07 12:35:12;;;;;;;33.30;22.23;;;8.90;99.90;;;;;;5015668;28;20033;-75
2022/02/07 12:37:41;;;;;;;44.20;24.67;;;8.90;99.90;;;;;;5030203;28;20069;-73
2022/02/07 12:40:10;;;;;;;35.67;22.73;;;8.90;99.90;;;;;;5029532;28;20429;-73
2022/02/07 12:42:39;;;;;;;32.78;21.40;;;9.00;99.90;;;;;;5013694;28;20175;-74
2022/02/07 12:45:07;;;;;;;33.53;21.73;;;9.00;99.90;;;;;;5030065;28;20413;-74
2022/02/07 12:47:39;;;;;;;35.10;22.23;;;8.90;99.90;;;;;;5031388;28;20057;-75
2022/02/07 12:50:10;;;;;;;40.50;22.63;;;8.90;99.90;;;;;;5013211;28;20040;-74
2022/02/07 12:52:38;;;;;;;32.42;22.38;;;8.70;99.90;;;;;;5031227;28;20041;-74
2022/02/07 12:55:07;;;;;;;33.38;20.55;;;8.60;99.90;;;;;;5030836;28;20080;-74
2022/02/07 12:57:43;;;;;;;37.77;22.37;;;8.60;99.90;;;;;;5013758;28;20132;-73
2022/02/07 13:00:14;;;;;;;38.03;21.10;;;8.50;99.90;;;;;;5030625;28;20038;-75
2022/02/07 13:02:43;;;;;;;33.83;20.73;;;8.60;99.90;;;;;;5030654;28;20037;-74
2022/02/07 13:05:13;;;;;;;27.30;19.13;;;8.70;99.90;;;;;;5032752;28;20081;-73
2022/02/07 13:07:47;;;;;;;25.08;17.75;;;8.80;99.90;;;;;;5035142;28;20033;-76
2022/02/07 13:10:18;;;;;;;26.60;18.02;;;8.70;99.90;;;;;;5034044;28;20048;-78
2022/02/07 13:15:32;;;;;;;26.10;18.77;;;9.00;99.90;;;;;;5034695;28;20060;-73
2022/02/07 13:18:04;;;;;;;28.40;18.90;;;9.10;99.90;;;;;;5030545;28;20066;-75
2022/02/07 13:20:33;;;;;;;23.35;16.25;;;9.00;99.90;;;;;;5019799;28;20127;-74
2022/02/07 13:23:14;;;;;;;25.83;16.27;;;9.10;99.90;;;;;;5033218;28;20512;-74
2022/02/07 13:25:53;;;;;;;24.58;15.55;;;8.80;99.90;;;;;;5049776;28;20087;-77
2022/02/07 13:28:22;;;;;;;21.05;15.98;;;8.80;99.90;;;;;;5034258;28;20034;-76
2022/02/07 13:30:52;;;;;;;24.98;16.33;;;9.00;99.90;;;;;;5034028;28;20038;-74
2022/02/07 13:33:20;;;;;;;28.58;16.65;;;9.00;99.90;;;;;;5032949;28;20042;-75
2022/02/07 13:35:52;;;;;;;33.72;16.75;;;8.90;99.90;;;;;;5034191;28;20037;-74
2022/02/07 13:38:20;;;;;;;25.48;16.25;;;9.00;99.90;;;;;;5017045;28;20048;-73
2022/02/07 13:40:50;;;;;;;35.13;18.13;;;9.00;99.90;;;;;;5033050;28;20116;-75
2022/02/07 13:43:22;;;;;;;28.33;16.88;;;8.80;99.90;;;;;;5033243;28;20041;-77
2022/02/07 13:46:04;;;;;;;26.25;18.30;;;8.80;99.90;;;;;;5032714;28;20037;-74
2022/02/07 13:48:33;;;;;;;26.02;18.48;;;8.70;99.90;;;;;;5034360;28;20048;-74
2022/02/07 13:51:01;;;;;;;34.75;22.55;;;8.80;99.90;;;;;;5034070;28;20042;-73
2022/02/07 13:53:29;;;;;;;32.95;22.83;;;8.80;99.90;;;;;;5034277;28;20128;-74
2022/02/07 13:55:59;;;;;;;37.50;22.02;;;9.00;99.90;;;;;;5033971;28;20032;-75
2022/02/07 13:58:34;;;;;;;31.90;21.15;;;8.90;99.90;;;;;;5033684;28;20379;-73
2022/02/07 14:01:06;;;;;;;33.60;21.27;;;8.80;99.90;;;;;;5032534;28;20399;-74
2022/02/07 14:03:37;;;;;;;34.75;22.00;;;8.60;99.90;;;;;;5032510;28;20478;-73
2022/02/07 14:06:09;;;;;;;29.63;21.55;;;8.70;99.90;;;;;;5033302;28;20453;-73
2022/02/07 14:08:52;;;;;;;40.25;22.60;;;8.70;99.90;;;;;;5033733;28;20133;-74
2022/02/07 14:11:24;;;;;;;37.17;22.67;;;8.80;99.90;;;;;;5048600;28;20044;-74
2022/02/07 14:13:54;;;;;;;45.72;23.70;;;8.90;99.90;;;;;;5033063;28;20130;-74
2022/02/07 14:16:23;;;;;;;44.17;24.75;;;8.90;99.90;;;;;;5032609;28;20037;-72
2022/02/07 14:18:52;;;;;;;38.08;24.95;;;8.90;99.90;;;;;;5033595;28;20037;-75
2022/02/07 14:21:22;;;;;;;44.33;26.27;;;9.00;99.90;;;;;;5033247;28;20053;-75
2022/02/07 14:23:52;;;;;;;44.28;26.40;;;9.00;99.90;;;;;;5048750;28;20041;-75
2022/02/07 14:26:40;;;;;;;40.42;26.30;;;8.90;99.90;;;;;;5033636;28;20041;-75
2022/02/07 14:29:08;;;;;;;47.40;27.13;;;9.00;99.90;;;;;;5032971;28;20120;-76
2022/02/07 14:31:37;;;;;;;46.75;28.27;;;9.10;99.90;;;;;;5032449;28;20509;-76
2022/02/07 14:34:04;;;;;;;43.15;27.70;;;9.10;99.90;;;;;;5033288;28;20037;-74
2022/02/07 14:36:36;;;;;;;41.78;25.60;;;8.90;99.90;;;;;;5031775;28;20033;-74
2022/02/07 14:39:06;;;;;;;47.55;27.50;;;8.80;99.90;;;;;;5033248;28;20045;-76
2022/02/07 14:41:34;;;;;;;43.03;28.02;;;8.80;99.90;;;;;;5032242;28;20120;-74
2022/02/07 14:44:03;;;;;;;43.08;27.00;;;8.80;99.90;;;;;;5031851;28;20041;-76
2022/02/07 14:46:42;;;;;;;48.35;27.85;;;8.90;99.90;;;;;;5032077;28;20033;-74
2022/02/07 14:49:09;;;;;;;46.72;27.30;;;9.10;99.90;;;;;;5048375;28;20471;-76
2022/02/07 14:51:37;;;;;;;40.90;25.42;;;9.10;99.90;;;;;;5032437;28;20037;-75
2022/02/07 14:54:05;;;;;;;44.28;27.20;;;9.00;99.90;;;;;;5033006;28;20497;-75
2022/02/07 14:56:33;;;;;;;44.67;26.88;;;8.90;99.90;;;;;;5032803;28;20045;-75
2022/02/07 14:59:00;;;;;;;48.85;29.25;;;8.90;99.90;;;;;;5032571;28;20045;-74
2022/02/07 15:01:28;;;;;;;40.60;27.75;;;8.90;99.90;;;;;;5032697;28;20061;-77
2022/02/07 15:03:55;;;;;;;45.55;26.40;;;8.90;99.90;;;;;;5015525;28;20391;-75
2022/02/07 15:06:22;;;;;;;42.17;26.80;;;9.00;99.90;;;;;;5032084;28;20034;-73
2022/02/07 15:08:51;;;;;;;37.65;26.33;;;9.10;99.90;;;;;;5032494;28;20037;-73
2022/02/07 15:11:18;;;;;;;56.45;28.38;;;9.20;99.90;;;;;;5032205;28;20033;-76
2022/02/07 15:13:46;;;;;;;45.42;28.65;;;9.10;99.90;;;;;;5031743;28;20355;-74
2022/02/07 15:16:13;;;;;;;45.92;27.77;;;9.10;99.90;;;;;;5032354;28;20049;-74
2022/02/07 15:18:45;;;;;;;38.97;26.33;;;9.10;99.90;;;;;;5031769;28;20057;-76
2022/02/07 15:21:12;;;;;;;48.42;29.98;;;9.20;99.90;;;;;;5032093;28;20150;-73
2022/02/07 15:23:41;;;;;;;42.13;27.60;;;9.10;99.90;;;;;;5032540;28;20393;-76
2022/02/07 15:26:09;;;;;;;50.60;28.05;;;8.80;99.90;;;;;;5030974;28;20394;-75
2022/02/07 15:28:37;;;;;;;52.38;28.85;;;8.70;99.90;;;;;;5031372;28;20449;-73
2022/02/07 15:31:04;;;;;;;47.60;27.20;;;8.70;99.90;;;;;;5031952;28;20040;-74
2022/02/07 15:33:42;;;;;;;45.65;28.05;;;8.80;99.90;;;;;;5032490;28;20072;-74
2022/02/07 15:36:11;;;;;;;47.25;29.92;;;8.90;99.90;;;;;;5032138;28;20112;-77
2022/02/07 15:38:39;;;;;;;45.60;28.65;;;8.80;99.90;;;;;;5031980;28;20033;-73